Time;durP1;ratioP1;P1;durP2;ratioP2;P2;SDS_P1;SDS_P2;PMS_P1;PMS_P2;Temp;Humidity;BMP_temperature;BMP_pressure;BME280_temperature;BME280_humidity;BME280_pressure;Samples;Min_cycle;Max_cycle;Signal;HPM_P1;HPM_P2
2022/05/10 00:00:13;;;;;;;;;;;;;;;10.57;61.61;95660.69;4974792;28;1910;-49
2022/05/10 00:02:39;;;;;;;;;;;;;;;10.68;61.48;95661.38;4975083;28;978;-49
2022/05/10 00:05:06;;;;;;;;;;;;;;;10.66;61.49;95660.66;4974958;28;1025;-49
2022/05/10 00:07:34;;;;;;;;;;;;;;;10.52;62.21;95658.47;4975055;28;1034;-49
2022/05/10 00:10:00;;;;;;;;;;;;;;;10.40;62.49;95659.69;4974834;28;1049;-49
2022/05/10 00:12:26;;;;;;;;;;;;;;;10.38;62.17;95656.28;4974917;28;1028;-49
2022/05/10 00:14:53;;;;;;;;;;;;;;;10.23;62.87;95662.09;4974680;28;1012;-49
2022/05/10 00:17:22;;;;;;;;;;;;;;;10.03;63.20;95661.31;4974548;28;1010;-48
2022/05/10 00:19:48;;;;;;;;;;;;;;;10.08;63.11;95660.88;4974385;28;1976;-49
2022/05/10 00:22:15;;;;;;;;;;;;;;;9.93;63.75;95661.34;4974565;28;1076;-48
2022/05/10 00:24:41;;;;;;;;;;;;;;;10.03;63.51;95649.78;4974751;28;960;-48
2022/05/10 00:27:07;;;;;;;;;;;;;;;10.02;63.26;95654.28;4974401;28;1159;-48
2022/05/10 00:29:33;;;;;;;;;;;;;;;9.80;63.96;95655.47;4973899;28;925;-49
2022/05/10 00:31:59;;;;;;;;;;;;;;;9.95;63.21;95650.50;4974646;28;950;-49
2022/05/10 00:34:28;;;;;;;;;;;;;;;10.00;63.62;95650.94;4974374;28;1107;-48
2022/05/10 00:36:54;;;;;;;;;;;;;;;9.90;64.01;95642.94;4974316;28;1041;-48
2022/05/10 00:39:20;;;;;;;;;;;;;;;9.94;63.64;95633.66;4974333;28;1176;-48
2022/05/10 00:42:05;;;;;;;;;;;;;;;9.91;63.61;95635.75;4974159;28;1914;-48
2022/05/10 00:44:34;;;;;;;;;;;;;;;9.49;64.83;95641.47;4974218;28;1053;-48
2022/05/10 00:47:00;;;;;;;;;;;;;;;9.28;65.39;95644.31;4974388;28;1023;-48
2022/05/10 00:49:29;;;;;;;;;;;;;;;9.27;65.42;95637.28;4974101;28;1050;-48
2022/05/10 00:52:02;;;;;;;;;;;;;;;9.36;65.16;95636.44;4974083;28;1010;-48
2022/05/10 00:54:31;;;;;;;;;;;;;;;9.30;65.46;95637.00;4974442;28;996;-48
2022/05/10 00:57:08;;;;;;;;;;;;;;;9.25;65.56;95634.75;4974088;28;1049;-49
2022/05/10 00:59:53;;;;;;;;;;;;;;;9.45;64.87;95632.91;4974226;28;967;-48
2022/05/10 01:02:37;;;;;;;;;;;;;;;9.57;64.76;95639.75;4973930;28;965;-48
2022/05/10 01:05:30;;;;;;;;;;;;;;;9.77;64.13;95637.09;4974590;28;962;-48
2022/05/10 01:07:56;;;;;;;;;;;;;;;9.74;64.55;95635.50;4971741;28;1869;-47
2022/05/10 01:10:30;;;;;;;;;;;;;;;9.60;64.84;95633.31;4974162;28;1022;-48
2022/05/10 01:13:12;;;;;;;;;;;;;;;9.47;65.11;95635.44;4974068;28;911;-48
2022/05/10 01:15:40;;;;;;;;;;;;;;;9.00;66.16;95636.16;4974279;28;970;-48
2022/05/10 01:18:06;;;;;;;;;;;;;;;9.02;66.44;95638.69;4973709;28;1087;-48
2022/05/10 01:20:37;;;;;;;;;;;;;;;9.16;65.99;95630.25;4974001;28;1910;-48
2022/05/10 01:23:09;;;;;;;;;;;;;;;9.35;65.26;95629.38;4973814;28;1008;-48
2022/05/10 01:25:58;;;;;;;;;;;;;;;9.36;65.88;95637.25;4974174;28;1218;-48
2022/05/10 01:28:33;;;;;;;;;;;;;;;9.23;65.80;95636.72;4974021;28;1053;-48
2022/05/10 01:31:03;;;;;;;;;;;;;;;8.92;66.64;95642.19;4973871;28;1092;-48
2022/05/10 01:33:40;;;;;;;;;;;;;;;8.72;67.07;95637.78;4973927;28;1246;-48
2022/05/10 01:36:12;;;;;;;;;;;;;;;8.82;66.99;95643.13;4974057;28;1009;-48
2022/05/10 01:38:38;;;;;;;;;;;;;;;8.93;66.49;95640.34;4973892;28;1017;-48
2022/05/10 01:41:25;;;;;;;;;;;;;;;8.86;66.66;95636.53;4977339;28;1906;-48
2022/05/10 01:43:51;;;;;;;;;;;;;;;8.74;67.40;95633.16;4947431;28;1279;-48
2022/05/10 01:46:22;;;;;;;;;;;;;;;8.84;67.32;95635.84;4977120;28;1042;-48
2022/05/10 01:48:50;;;;;;;;;;;;;;;8.80;67.23;95627.28;4977518;28;1004;-48
2022/05/10 01:51:25;;;;;;;;;;;;;;;8.72;67.56;95632.47;4977201;28;1178;-48
2022/05/10 01:53:51;;;;;;;;;;;;;;;8.74;67.39;95631.34;4977218;28;1058;-48
2022/05/10 01:56:22;;;;;;;;;;;;;;;8.64;67.38;95627.00;4977381;28;1048;-48
2022/05/10 01:58:48;;;;;;;;;;;;;;;8.55;67.70;95624.16;4977311;28;1041;-48
2022/05/10 02:01:22;;;;;;;;;;;;;;;8.65;67.64;95628.66;4977044;28;1914;-48
2022/05/10 02:03:54;;;;;;;;;;;;;;;8.93;67.02;95625.19;4977225;28;1061;-48
2022/05/10 02:06:20;;;;;;;;;;;;;;;9.03;66.20;95627.88;4976911;28;1021;-48
2022/05/10 02:09:04;;;;;;;;;;;;;;;8.87;67.02;95622.25;4977179;28;1029;-48
2022/05/10 02:11:34;;;;;;;;;;;;;;;8.69;67.81;95628.25;4976640;28;1036;-49
2022/05/10 02:14:06;;;;;;;;;;;;;;;8.72;67.54;95630.63;4976764;28;1041;-49
2022/05/10 02:16:32;;;;;;;;;;;;;;;8.70;67.55;95642.44;4977179;28;969;-49
2022/05/10 02:19:08;;;;;;;;;;;;;;;8.64;67.31;95641.16;4976848;28;1022;-49
2022/05/10 02:21:39;;;;;;;;;;;;;;;8.60;67.35;95645.06;4976576;28;1902;-49
2022/05/10 02:24:09;;;;;;;;;;;;;;;8.48;67.58;95633.69;4976909;28;985;-49
2022/05/10 02:26:48;;;;;;;;;;;;;;;8.35;68.09;95638.38;4976491;28;1143;-49
2022/05/10 02:29:20;;;;;;;;;;;;;;;8.54;67.66;95630.47;4976682;28;1033;-49
2022/05/10 02:34:37;;;;;;;;;;;;;;;8.23;68.00;95628.81;4976372;28;1108;-49
2022/05/10 02:37:03;;;;;;;;;;;;;;;7.91;69.20;95633.31;4976288;28;1255;-49
2022/05/10 02:39:30;;;;;;;;;;;;;;;7.70;69.85;95630.69;4976306;28;1013;-48
2022/05/10 02:41:57;;;;;;;;;;;;;;;7.91;69.79;95641.31;4976134;28;1985;-48
2022/05/10 02:44:23;;;;;;;;;;;;;;;8.08;68.99;95637.19;4976148;28;1080;-50
2022/05/10 02:46:49;;;;;;;;;;;;;;;8.19;68.38;95636.22;4976188;28;1080;-49
2022/05/10 02:49:17;;;;;;;;;;;;;;;8.21;68.32;95635.13;4976211;28;977;-50
2022/05/10 02:51:43;;;;;;;;;;;;;;;8.17;68.51;95636.34;4975574;28;1060;-50
2022/05/10 02:54:11;;;;;;;;;;;;;;;8.13;68.67;95634.94;4975951;28;1114;-49
2022/05/10 02:56:38;;;;;;;;;;;;;;;7.79;69.42;95637.03;4976035;28;1010;-50
2022/05/10 02:59:04;;;;;;;;;;;;;;;7.66;70.18;95633.72;4975820;28;1025;-50
2022/05/10 03:01:33;;;;;;;;;;;;;;;7.82;69.95;95644.75;4976099;28;1911;-50
2022/05/10 03:04:00;;;;;;;;;;;;;;;7.92;69.38;95639.47;4975699;28;1005;-50
2022/05/10 03:06:27;;;;;;;;;;;;;;;8.06;69.35;95638.25;4975996;28;1221;-49
2022/05/10 03:08:54;;;;;;;;;;;;;;;8.17;69.02;95646.16;4975744;28;1290;-50
2022/05/10 03:11:20;;;;;;;;;;;;;;;8.21;68.56;95640.44;4975722;28;1868;-50
2022/05/10 03:13:47;;;;;;;;;;;;;;;8.19;68.67;95647.72;4975523;28;1112;-50
2022/05/10 03:16:16;;;;;;;;;;;;;;;8.19;68.76;95647.72;4975710;28;963;-48
2022/05/10 03:18:45;;;;;;;;;;;;;;;8.14;68.57;95644.63;4975516;28;908;-48
2022/05/10 03:21:11;;;;;;;;;;;;;;;8.13;69.27;95637.59;4975523;28;1910;-48
2022/05/10 03:23:38;;;;;;;;;;;;;;;8.07;68.71;95647.97;4975417;28;1041;-49
2022/05/10 03:26:04;;;;;;;;;;;;;;;7.79;69.14;95647.66;4975544;28;1159;-48
2022/05/10 03:28:31;;;;;;;;;;;;;;;7.90;69.26;95642.25;4975195;28;955;-48
2022/05/10 03:30:57;;;;;;;;;;;;;;;8.06;68.93;95638.25;4975435;28;1045;-49
2022/05/10 03:33:23;;;;;;;;;;;;;;;7.79;69.08;95650.31;4975287;28;1095;-48
2022/05/10 03:35:49;;;;;;;;;;;;;;;7.74;69.62;95652.53;4975596;28;973;-48
2022/05/10 03:38:15;;;;;;;;;;;;;;;7.81;69.66;95641.22;4975264;28;981;-48
2022/05/10 03:40:41;;;;;;;;;;;;;;;8.01;69.37;95649.34;4975186;28;1899;-49
2022/05/10 03:43:08;;;;;;;;;;;;;;;8.10;69.04;95645.00;4975278;28;974;-49
2022/05/10 03:45:34;;;;;;;;;;;;;;;8.09;68.79;95649.50;4975397;28;994;-48
2022/05/10 03:48:01;;;;;;;;;;;;;;;8.36;68.67;95653.38;4975130;28;1027;-48
2022/05/10 03:50:27;;;;;;;;;;;;;;;8.33;68.70;95656.34;4975180;28;1020;-48
2022/05/10 03:52:53;;;;;;;;;;;;;;;8.43;68.82;95661.72;4975048;28;1081;-48
2022/05/10 03:55:20;;;;;;;;;;;;;;;8.53;68.64;95667.91;4974832;28;1100;-48
2022/05/10 03:57:47;;;;;;;;;;;;;;;8.68;67.94;95673.72;4974854;28;1038;-48
2022/05/10 04:00:15;;;;;;;;;;;;;;;8.72;68.10;95683.13;4974711;28;1989;-48
2022/05/10 04:02:42;;;;;;;;;;;;;;;8.96;67.21;95678.25;4974529;28;959;-48
2022/05/10 04:05:08;;;;;;;;;;;;;;;9.19;67.24;95681.50;4975023;28;952;-49
2022/05/10 04:07:34;;;;;;;;;;;;;;;9.31;66.54;95684.88;4974860;28;971;-49
2022/05/10 04:10:00;;;;;;;;;;;;;;;9.51;65.83;95674.22;4974728;28;1065;-48
2022/05/10 04:12:26;;;;;;;;;;;;;;;9.52;65.92;95676.75;4974628;28;962;-48
2022/05/10 04:14:53;;;;;;;;;;;;;;;9.43;67.01;95682.06;4974581;28;1131;-48
2022/05/10 04:17:19;;;;;;;;;;;;;;;9.59;67.39;95679.69;4974697;28;1048;-48
2022/05/10 04:19:45;;;;;;;;;;;;;;;9.78;66.55;95676.13;4974519;28;1846;-48
2022/05/10 04:22:11;;;;;;;;;;;;;;;9.96;66.38;95679.75;4974701;28;2015;-48
2022/05/10 04:24:37;;;;;;;;;;;;;;;10.10;65.66;95685.63;4974417;28;943;-48
2022/05/10 04:27:03;;;;;;;;;;;;;;;10.30;65.00;95679.25;4974622;28;1167;-48
2022/05/10 04:29:29;;;;;;;;;;;;;;;10.64;64.91;95689.41;4974515;28;1045;-48
2022/05/10 04:31:55;;;;;;;;;;;;;;;11.04;64.15;95684.63;4974538;28;1014;-49
2022/05/10 04:34:21;;;;;;;;;;;;;;;11.38;63.18;95686.66;4974084;28;1092;-48
2022/05/10 04:36:47;;;;;;;;;;;;;;;11.62;62.61;95686.88;4974453;28;1006;-48
2022/05/10 04:39:13;;;;;;;;;;;;;;;11.70;62.98;95684.28;4974281;28;1009;-48
2022/05/10 04:41:43;;;;;;;;;;;;;;;11.80;61.36;95684.19;4974144;28;1902;-48
2022/05/10 04:44:10;;;;;;;;;;;;;;;12.04;60.59;95688.91;4974499;28;1042;-48
2022/05/10 04:46:37;;;;;;;;;;;;;;;12.25;59.55;95688.53;4974578;28;971;-48
2022/05/10 04:49:04;;;;;;;;;;;;;;;12.78;56.94;95700.03;4974310;28;1021;-48
2022/05/10 04:51:31;;;;;;;;;;;;;;;13.65;55.94;95691.75;4974398;28;1049;-49
2022/05/10 04:53:57;;;;;;;;;;;;;;;14.51;52.11;95708.28;4974265;28;1084;-49
2022/05/10 04:56:24;;;;;;;;;;;;;;;15.29;50.25;95704.84;4974004;28;1026;-48
2022/05/10 04:58:54;;;;;;;;;;;;;;;15.49;49.46;95707.09;4974279;28;1188;-49
2022/05/10 05:01:22;;;;;;;;;;;;;;;15.52;47.98;95701.34;4974562;28;1984;-49
2022/05/10 05:03:49;;;;;;;;;;;;;;;16.58;46.00;95703.16;4974189;28;1055;-49
2022/05/10 05:06:18;;;;;;;;;;;;;;;16.92;45.65;95700.94;4974035;28;961;-49
2022/05/10 05:08:44;;;;;;;;;;;;;;;16.65;46.15;95697.03;4974172;28;1025;-49
2022/05/10 05:11:10;;;;;;;;;;;;;;;17.03;45.80;95699.66;4972898;28;962;-49
2022/05/10 05:13:36;;;;;;;;;;;;;;;17.61;44.37;95695.16;4974357;28;1064;-49
2022/05/10 05:16:03;;;;;;;;;;;;;;;18.19;42.90;95699.69;4977968;28;1026;-49
2022/05/10 05:18:29;;;;;;;;;;;;;;;18.20;42.53;95696.78;4977655;28;1068;-49
2022/05/10 05:20:55;;;;;;;;;;;;;;;18.22;42.42;95705.53;4977692;28;1907;-49
2022/05/10 05:23:22;;;;;;;;;;;;;;;18.36;41.94;95697.53;4978050;28;994;-49
2022/05/10 05:25:49;;;;;;;;;;;;;;;18.66;42.68;95693.56;4977375;28;1162;-49
2022/05/10 05:28:15;;;;;;;;;;;;;;;19.37;41.38;95697.09;4977926;28;1061;-49
2022/05/10 05:30:42;;;;;;;;;;;;;;;19.50;40.67;95694.44;4977480;28;1022;-49
2022/05/10 05:33:09;;;;;;;;;;;;;;;19.95;39.26;95693.97;4977968;28;1125;-49
2022/05/10 05:35:35;;;;;;;;;;;;;;;20.43;38.74;95691.03;4977230;28;1242;-50
2022/05/10 05:38:02;;;;;;;;;;;;;;;20.12;38.10;95697.13;4977882;28;989;-50
2022/05/10 05:40:29;;;;;;;;;;;;;;;20.48;38.24;95688.53;4977032;28;1995;-50
2022/05/10 05:42:55;;;;;;;;;;;;;;;20.42;36.71;95692.13;4977723;28;997;-50
2022/05/10 05:45:24;;;;;;;;;;;;;;;20.19;38.63;95696.06;4977176;28;1103;-51
2022/05/10 05:47:51;;;;;;;;;;;;;;;20.38;38.42;95690.88;4977323;28;1001;-51
2022/05/10 05:50:18;;;;;;;;;;;;;;;19.88;39.02;95691.22;4977112;28;1246;-50
2022/05/10 05:52:45;;;;;;;;;;;;;;;19.28;41.57;95700.00;4977241;28;1037;-50
2022/05/10 05:55:12;;;;;;;;;;;;;;;18.25;42.93;95697.03;4976949;28;999;-50
2022/05/10 05:57:38;;;;;;;;;;;;;;;17.73;44.10;95690.88;4977127;28;1017;-50
2022/05/10 06:00:09;;;;;;;;;;;;;;;17.28;45.30;95701.03;4977201;28;1914;-49
2022/05/10 06:02:36;;;;;;;;;;;;;;;16.66;47.26;95696.00;4977288;28;1030;-49
2022/05/10 06:05:02;;;;;;;;;;;;;;;16.41;46.83;95688.16;4977026;28;1020;-49
2022/05/10 06:07:28;;;;;;;;;;;;;;;16.39;47.07;95692.91;4977348;28;1024;-49
2022/05/10 06:09:54;;;;;;;;;;;;;;;16.54;47.54;95690.19;4977181;28;970;-50
2022/05/10 06:12:20;;;;;;;;;;;;;;;16.57;46.47;95685.28;4976981;28;1008;-49
2022/05/10 06:14:47;;;;;;;;;;;;;;;16.40;48.85;95687.31;4977231;28;973;-49
2022/05/10 06:17:14;;;;;;;;;;;;;;;16.63;48.22;95693.66;4976809;28;1026;-49
2022/05/10 06:19:41;;;;;;;;;;;;;;;17.13;47.58;95687.53;4976780;28;1021;-49
2022/05/10 06:22:08;;;;;;;;;;;;;;;17.20;46.60;95695.69;4976488;28;1902;-49
2022/05/10 06:24:34;;;;;;;;;;;;;;;17.54;47.63;95691.53;4976707;28;1199;-49
2022/05/10 06:27:01;;;;;;;;;;;;;;;17.78;46.61;95681.38;4975519;28;1227;-50
2022/05/10 06:29:27;;;;;;;;;;;;;;;17.97;46.14;95688.88;4976757;28;965;-49
2022/05/10 06:31:53;;;;;;;;;;;;;;;18.29;45.86;95687.50;4976394;28;1025;-49
2022/05/10 06:34:19;;;;;;;;;;;;;;;18.58;45.42;95687.50;4976352;28;1242;-49
2022/05/10 06:36:45;;;;;;;;;;;;;;;18.69;45.17;95686.94;4976586;28;1024;-49
2022/05/10 06:39:11;;;;;;;;;;;;;;;18.81;44.45;95693.50;4976748;28;981;-49
2022/05/10 06:41:37;;;;;;;;;;;;;;;18.88;44.00;95688.97;4976186;28;1993;-49
2022/05/10 06:44:04;;;;;;;;;;;;;;;18.99;44.95;95689.41;4976712;28;1066;-49
2022/05/10 06:46:32;;;;;;;;;;;;;;;19.30;45.09;95687.06;4976238;28;1042;-49
2022/05/10 06:48:59;;;;;;;;;;;;;;;19.54;45.12;95686.72;4976420;28;1046;-49
2022/05/10 06:51:25;;;;;;;;;;;;;;;19.58;43.06;95683.41;4976293;28;1004;-49
2022/05/10 06:53:53;;;;;;;;;;;;;;;19.79;43.33;95682.47;4976189;28;919;-49
2022/05/10 06:56:19;;;;;;;;;;;;;;;19.83;42.35;95677.47;4976111;28;951;-49
2022/05/10 06:58:46;;;;;;;;;;;;;;;19.95;42.02;95683.94;4976126;28;1012;-50
2022/05/10 07:01:13;;;;;;;;;;;;;;;20.09;42.86;95677.47;4976338;28;1991;-49
2022/05/10 07:03:44;;;;;;;;;;;;;;;20.25;42.37;95678.13;4975935;28;1077;-49
2022/05/10 07:06:11;;;;;;;;;;;;;;;20.40;42.71;95676.03;4975792;28;1017;-49
2022/05/10 07:08:37;;;;;;;;;;;;;;;20.67;41.28;95670.59;4975842;28;1013;-49
2022/05/10 07:11:03;;;;;;;;;;;;;;;20.71;40.11;95671.00;4976131;28;1030;-49
2022/05/10 07:13:30;;;;;;;;;;;;;;;20.91;40.55;95665.53;4975628;28;1002;-49
2022/05/10 07:15:57;;;;;;;;;;;;;;;21.16;39.45;95673.81;4976041;28;1000;-49
2022/05/10 07:18:23;;;;;;;;;;;;;;;21.28;40.14;95665.81;4975591;28;1025;-49
2022/05/10 07:20:50;;;;;;;;;;;;;;;21.29;40.26;95668.31;4975909;28;1903;-49
2022/05/10 07:23:28;;;;;;;;;;;;;;;21.39;39.98;95663.25;4975429;28;1014;-49
2022/05/10 07:25:55;;;;;;;;;;;;;;;21.57;39.00;95657.13;4975634;28;1148;-49
2022/05/10 07:28:21;;;;;;;;;;;;;;;21.73;37.38;95658.50;4975421;28;1053;-49
2022/05/10 07:30:48;;;;;;;;;;;;;;;21.77;38.49;95659.72;4975586;28;955;-49
2022/05/10 07:33:20;;;;;;;;;;;;;;;21.70;37.93;95658.09;4975240;28;964;-49
2022/05/10 07:38:31;;;;;;;;;;;;;;;21.94;38.31;95660.03;4974912;28;1084;-49
2022/05/10 07:40:57;;;;;;;;;;;;;;;22.01;39.29;95662.72;4974079;28;1907;-49
2022/05/10 07:43:24;;;;;;;;;;;;;;;22.12;38.77;95651.13;4975122;28;1165;-49
2022/05/10 07:45:51;;;;;;;;;;;;;;;22.22;37.10;95650.63;4975175;28;958;-49
2022/05/10 07:48:17;;;;;;;;;;;;;;;22.48;37.90;95655.06;4975032;28;955;-49
2022/05/10 07:50:44;;;;;;;;;;;;;;;22.81;37.10;95649.25;4975148;28;1022;-49
2022/05/10 07:53:11;;;;;;;;;;;;;;;23.00;38.42;95654.72;4974929;28;1136;-54
2022/05/10 07:55:38;;;;;;;;;;;;;;;22.89;37.46;95650.03;4975189;28;965;-49
2022/05/10 07:58:05;;;;;;;;;;;;;;;22.98;37.37;95654.94;4974936;28;1014;-49
2022/05/10 08:00:36;;;;;;;;;;;;;;;23.02;37.18;95649.88;4974789;28;1931;-49
2022/05/10 08:03:16;;;;;;;;;;;;;;;23.16;37.08;95642.41;4974799;28;1021;-49
2022/05/10 08:05:42;;;;;;;;;;;;;;;23.08;37.52;95643.53;4974923;28;1002;-49
2022/05/10 08:08:09;;;;;;;;;;;;;;;23.12;37.13;95643.91;4974982;28;955;-49
2022/05/10 08:10:36;;;;;;;;;;;;;;;23.34;35.78;95636.13;4974941;28;1041;-49
2022/05/10 08:13:02;;;;;;;;;;;;;;;23.35;36.51;95637.75;4974555;28;1047;-49
2022/05/10 08:15:29;;;;;;;;;;;;;;;23.53;36.68;95632.28;4974991;28;959;-49
2022/05/10 08:17:55;;;;;;;;;;;;;;;23.83;36.93;95639.66;4974679;28;1054;-49
2022/05/10 08:20:21;;;;;;;;;;;;;;;24.09;35.36;95632.13;4974842;28;1910;-49
2022/05/10 08:22:47;;;;;;;;;;;;;;;24.05;35.20;95620.81;4974509;28;1021;-49
2022/05/10 08:25:14;;;;;;;;;;;;;;;24.04;34.19;95619.19;4974864;28;1049;-49
2022/05/10 08:27:40;;;;;;;;;;;;;;;24.33;32.70;95617.44;4974487;28;1163;-49
2022/05/10 08:30:06;;;;;;;;;;;;;;;24.54;33.90;95617.94;4974586;28;1076;-50
2022/05/10 08:32:32;;;;;;;;;;;;;;;24.46;33.42;95616.38;4974517;28;1006;-50
2022/05/10 08:34:58;;;;;;;;;;;;;;;24.58;33.34;95615.56;4974354;28;1230;-50
2022/05/10 08:37:24;;;;;;;;;;;;;;;24.72;31.56;95615.09;4974562;28;976;-50
2022/05/10 08:39:50;;;;;;;;;;;;;;;24.88;31.76;95612.72;4974479;28;1048;-50
2022/05/10 08:42:16;;;;;;;;;;;;;;;24.77;31.98;95611.63;4974255;28;2005;-49
2022/05/10 08:44:46;;;;;;;;;;;;;;;24.81;31.94;95615.56;4974546;28;968;-53
2022/05/10 08:47:14;;;;;;;;;;;;;;;24.90;31.28;95608.66;4974375;28;1080;-50
2022/05/10 08:49:58;;;;;;;;;;;;;;;24.77;29.17;95605.34;4978074;28;965;-49
2022/05/10 08:52:30;;;;;;;;;;;;;;;24.88;30.88;95605.31;4980675;28;1089;-49
2022/05/10 08:54:57;;;;;;;;;;;;;;;25.08;29.61;95598.63;4980442;28;1025;-49
2022/05/10 08:57:29;;;;;;;;;;;;;;;25.12;30.24;95599.81;4980696;28;1045;-49
2022/05/10 09:00:06;;;;;;;;;;;;;;;25.22;30.40;95602.75;4980918;28;1033;-50
2022/05/10 09:02:44;;;;;;;;;;;;;;;25.28;30.19;95601.00;4980629;28;1009;-50
2022/05/10 09:05:19;;;;;;;;;;;;;;;25.36;30.03;95594.31;4980782;28;959;-49
2022/05/10 09:07:51;;;;;;;;;;;;;;;25.53;31.18;95603.38;4980909;28;1029;-50
2022/05/10 09:10:20;;;;;;;;;;;;;;;25.68;30.10;95594.63;4980255;28;1080;-50
2022/05/10 09:13:03;;;;;;;;;;;;;;;25.67;27.95;95593.00;4980591;28;1188;-50
2022/05/10 09:15:36;;;;;;;;;;;;;;;25.62;28.97;95595.63;4980330;28;989;-50
2022/05/10 09:18:14;;;;;;;;;;;;;;;25.56;29.92;95588.41;4980389;28;1025;-50
2022/05/10 09:20:45;;;;;;;;;;;;;;;25.67;30.65;95590.25;4980379;28;1915;-51
2022/05/10 09:23:21;;;;;;;;;;;;;;;25.62;29.96;95581.94;4980782;28;1066;-51
2022/05/10 09:25:48;;;;;;;;;;;;;;;25.66;30.75;95583.94;4980325;28;1155;-51
2022/05/10 09:28:26;;;;;;;;;;;;;;;25.59;29.13;95586.00;4980391;28;1018;-50
2022/05/10 09:36:31;;;;;;;;;;;;;;;25.42;29.13;95575.00;4980318;28;1026;-49
2022/05/10 09:39:00;;;;;;;;;;;;;;;25.15;29.27;95571.97;4980356;28;951;-50
2022/05/10 09:41:37;;;;;;;;;;;;;;;25.22;28.90;95561.72;4980397;28;1910;-50
2022/05/10 09:44:21;;;;;;;;;;;;;;;25.06;28.66;95555.13;4980353;28;1050;-50
2022/05/10 09:46:47;;;;;;;;;;;;;;;25.42;30.39;95561.31;4980270;28;1041;-53
2022/05/10 09:49:34;;;;;;;;;;;;;;;25.60;30.79;95562.19;4980154;28;1210;-49
2022/05/10 09:52:00;;;;;;;;;;;;;;;25.64;29.28;95549.66;4980471;28;962;-49
2022/05/10 09:54:32;;;;;;;;;;;;;;;25.50;28.97;95549.16;4980072;28;970;-49
2022/05/10 09:56:59;;;;;;;;;;;;;;;25.46;28.66;95553.44;4980541;28;1057;-49
2022/05/10 09:59:57;;;;;;;;;;;;;;;25.40;30.02;95549.78;4979974;28;1877;-50
2022/05/10 10:02:31;;;;;;;;;;;;;;;25.56;29.32;95548.16;4944754;28;1982;-50
2022/05/10 10:04:58;;;;;;;;;;;;;;;25.60;27.52;95543.03;4976957;28;1057;-49
2022/05/10 10:07:25;;;;;;;;;;;;;;;25.39;27.54;95537.16;4977190;28;1043;-50
2022/05/10 10:09:53;;;;;;;;;;;;;;;25.19;28.49;95534.00;4976794;28;1021;-49
2022/05/10 10:12:34;;;;;;;;;;;;;;;25.45;29.90;95535.34;4977213;28;971;-49
2022/05/10 10:15:02;;;;;;;;;;;;;;;25.74;29.01;95538.06;4977037;28;951;-49
2022/05/10 10:17:30;;;;;;;;;;;;;;;25.66;26.29;95528.34;4976638;28;1092;-49
2022/05/10 10:20:15;;;;;;;;;;;;;;;25.70;30.26;95524.03;4977015;28;1050;-49
2022/05/10 10:22:46;;;;;;;;;;;;;;;25.73;28.99;95522.72;4976837;28;978;-50
2022/05/10 10:25:18;;;;;;;;;;;;;;;25.83;28.27;95531.09;4976857;28;963;-49
2022/05/10 10:28:04;;;;;;;;;;;;;;;25.73;27.60;95519.97;4976775;28;1155;-50
2022/05/10 10:30:33;;;;;;;;;;;;;;;25.61;28.16;95511.81;4966439;28;1819;-49
2022/05/10 10:33:08;;;;;;;;;;;;;;;25.53;28.21;95510.31;4976564;28;1049;-49
2022/05/10 10:35:53;;;;;;;;;;;;;;;25.47;27.33;95506.66;4976160;28;1071;-49
2022/05/10 10:38:24;;;;;;;;;;;;;;;25.56;29.35;95498.88;4976375;28;1049;-49
2022/05/10 10:41:02;;;;;;;;;;;;;;;25.69;28.77;95500.47;4976277;28;1981;-49
2022/05/10 10:43:31;;;;;;;;;;;;;;;25.82;28.71;95494.69;4976301;28;1022;-49
2022/05/10 10:46:02;;;;;;;;;;;;;;;25.75;26.23;95495.91;4976522;28;962;-49
2022/05/10 10:48:42;;;;;;;;;;;;;;;25.59;26.82;95487.44;4976331;28;994;-49
2022/05/10 10:51:09;;;;;;;;;;;;;;;25.56;28.73;95482.47;4976483;28;1000;-49
2022/05/10 10:53:35;;;;;;;;;;;;;;;25.78;27.19;95485.31;4976352;28;1114;-50
2022/05/10 10:56:10;;;;;;;;;;;;;;;25.92;28.47;95488.56;4975998;28;961;-50
2022/05/10 10:58:36;;;;;;;;;;;;;;;25.90;28.63;95477.00;4976298;28;978;-50
2022/05/10 11:01:17;;;;;;;;;;;;;;;26.03;29.39;95470.38;4976122;28;1903;-49
2022/05/10 11:03:58;;;;;;;;;;;;;;;26.01;27.99;95473.38;4976209;28;975;-50
2022/05/10 11:06:28;;;;;;;;;;;;;;;26.09;28.52;95478.41;4975803;28;1017;-50
2022/05/10 11:08:57;;;;;;;;;;;;;;;26.11;29.13;95478.16;4975840;28;1020;-50
2022/05/10 11:11:39;;;;;;;;;;;;;;;26.07;28.48;95471.53;4975680;28;981;-50
2022/05/10 11:14:08;;;;;;;;;;;;;;;25.90;27.76;95466.84;4976231;28;962;-50
2022/05/10 11:16:43;;;;;;;;;;;;;;;25.72;28.00;95469.84;4975675;28;1029;-50
2022/05/10 11:19:28;;;;;;;;;;;;;;;25.75;28.03;95458.41;4975543;28;1026;-49
2022/05/10 11:22:17;;;;;;;;;;;;;;;25.90;27.63;95461.38;4975331;28;1974;-50
2022/05/10 11:24:49;;;;;;;;;;;;;;;25.89;26.44;95454.22;4968046;28;1394;-50
2022/05/10 11:27:27;;;;;;;;;;;;;;;25.92;26.96;95452.13;4975449;28;1215;-50
2022/05/10 11:30:03;;;;;;;;;;;;;;;25.79;25.52;95445.03;4975553;28;1008;-51
2022/05/10 11:32:38;;;;;;;;;;;;;;;25.85;26.20;95444.84;4975468;28;1029;-50
2022/05/10 11:35:10;;;;;;;;;;;;;;;25.85;26.78;95438.56;4975302;28;1269;-49
2022/05/10 11:37:42;;;;;;;;;;;;;;;25.93;27.00;95437.34;4975188;28;1046;-50
2022/05/10 11:40:27;;;;;;;;;;;;;;;25.75;24.09;95427.47;4975582;28;1918;-50
2022/05/10 11:42:53;;;;;;;;;;;;;;;25.68;25.65;95425.69;4975117;28;1025;-50
2022/05/10 11:45:22;;;;;;;;;;;;;;;25.74;24.68;95418.41;4975343;28;1049;-52
2022/05/10 11:47:51;;;;;;;;;;;;;;;25.54;26.65;95415.34;4975164;28;1022;-52
2022/05/10 11:50:34;;;;;;;;;;;;;;;25.52;24.88;95415.59;4975161;28;958;-52
2022/05/10 11:53:00;;;;;;;;;;;;;;;25.65;26.90;95409.78;4975216;28;982;-51
2022/05/10 11:55:31;;;;;;;;;;;;;;;25.75;25.65;95416.50;4975325;28;1009;-51
2022/05/10 11:58:03;;;;;;;;;;;;;;;25.74;26.09;95412.91;4975264;28;975;-51
2022/05/10 12:00:32;;;;;;;;;;;;;;;25.75;26.55;95406.38;4975346;28;1918;-52
2022/05/10 12:02:59;;;;;;;;;;;;;;;25.81;26.91;95402.63;4974788;28;1864;-49
2022/05/10 12:05:27;;;;;;;;;;;;;;;25.88;26.70;95397.81;4974842;28;1093;-50
2022/05/10 12:07:54;;;;;;;;;;;;;;;26.04;26.72;95392.56;4974881;28;1070;-49
2022/05/10 12:10:33;;;;;;;;;;;;;;;26.12;26.59;95389.38;4974749;28;1029;-49
2022/05/10 12:12:59;;;;;;;;;;;;;;;26.07;26.44;95387.41;4974733;28;1034;-49
2022/05/10 12:21:20;;;;;;;;;;;;;;;26.03;25.20;95382.72;4974913;28;1982;-49
2022/05/10 12:24:05;;;;;;;;;;;;;;;25.92;24.73;95379.00;4973880;28;1036;-50
2022/05/10 12:26:37;;;;;;;;;;;;;;;25.91;25.60;95374.56;4974602;28;1155;-49
2022/05/10 12:29:22;;;;;;;;;;;;;;;25.96;24.51;95366.44;4974648;28;1028;-50
2022/05/10 12:31:58;;;;;;;;;;;;;;;26.01;25.54;95360.19;4974672;28;942;-49
2022/05/10 12:34:42;;;;;;;;;;;;;;;25.83;25.46;95350.34;4974268;28;1100;-49
2022/05/10 12:37:30;;;;;;;;;;;;;;;25.78;25.58;95344.78;4974394;28;1045;-51
2022/05/10 12:40:08;;;;;;;;;;;;;;;25.92;25.72;95350.78;4974778;28;951;-54
2022/05/10 12:42:40;;;;;;;;;;;;;;;25.95;24.81;95337.38;4974099;28;1973;-50
2022/05/10 12:45:27;;;;;;;;;;;;;;;26.01;24.89;95338.28;4974695;28;984;-51
2022/05/10 12:47:56;;;;;;;;;;;;;;;25.90;25.72;95332.66;4943919;28;1208;-50
2022/05/10 12:50:41;;;;;;;;;;;;;;;26.08;25.88;95326.03;4974342;28;1005;-50
2022/05/10 12:53:30;;;;;;;;;;;;;;;26.19;25.32;95327.00;4974402;28;985;-50
2022/05/10 12:56:12;;;;;;;;;;;;;;;26.24;25.60;95327.09;4966646;28;1417;-50
2022/05/10 12:58:43;;;;;;;;;;;;;;;26.11;26.01;95322.00;4974217;28;953;-50
2022/05/10 13:01:12;;;;;;;;;;;;;;;26.04;25.60;95318.59;4974258;28;1907;-49
2022/05/10 13:03:45;;;;;;;;;;;;;;;25.86;25.66;95306.03;4973885;28;1021;-50
2022/05/10 13:06:24;;;;;;;;;;;;;;;25.45;25.98;95311.75;4972939;28;1029;-50
2022/05/10 13:08:57;;;;;;;;;;;;;;;25.21;25.22;95310.22;4974267;28;959;-51
2022/05/10 13:11:25;;;;;;;;;;;;;;;24.92;25.88;95302.09;4974211;28;1028;-51
2022/05/10 13:13:52;;;;;;;;;;;;;;;24.75;26.35;95296.63;4974006;28;967;-51
2022/05/10 13:16:20;;;;;;;;;;;;;;;24.68;26.31;95302.25;4974320;28;1029;-51
2022/05/10 13:18:53;;;;;;;;;;;;;;;24.89;26.13;95297.97;4972737;28;1161;-50
2022/05/10 13:21:24;;;;;;;;;;;;;;;25.16;24.99;95300.06;4974189;28;1907;-50
2022/05/10 13:23:51;;;;;;;;;;;;;;;25.24;25.74;95296.09;4974187;28;1021;-51
2022/05/10 13:26:17;;;;;;;;;;;;;;;25.29;25.78;95291.53;4973935;28;1119;-51
2022/05/10 13:28:54;;;;;;;;;;;;;;;25.32;27.36;95295.66;4973833;28;1066;-51
2022/05/10 13:31:22;;;;;;;;;;;;;;;25.05;26.82;95287.28;4974189;28;993;-51
2022/05/10 13:37:19;;;;;;;;;;;;;;;25.38;26.66;95277.41;4235524;28;2067;-51